Time;durP1;ratioP1;P1;durP2;ratioP2;P2;SDS_P1;SDS_P2;PMS_P1;PMS_P2;Temp;Humidity;BMP_temperature;BMP_pressure;BME280_temperature;BME280_humidity;BME280_pressure;Samples;Min_cycle;Max_cycle;Signal;HPM_P1;HPM_P2
2022/08/20 00:00:41;;;;;;;20.90;18.88;;;18.90;86.90;;;17.65;100.00;95888.72;5007697;28;20026;-66
2022/08/20 00:03:20;;;;;;;18.40;16.50;;;19.00;86.80;;;17.68;100.00;95890.13;5018285;28;20424;-66
2022/08/20 00:05:52;;;;;;;21.15;18.88;;;19.00;86.90;;;17.68;100.00;95890.94;5023333;28;20056;-66
2022/08/20 00:08:17;;;;;;;21.33;19.23;;;19.00;86.90;;;17.68;100.00;95893.59;4988518;28;20405;-66
2022/08/20 00:10:44;;;;;;;21.00;18.80;;;19.00;87.00;;;17.68;100.00;95882.16;5011681;28;20117;-65
2022/08/20 00:13:12;;;;;;;22.83;19.27;;;19.00;86.90;;;17.68;100.00;95893.59;4988909;28;20508;-65
2022/08/20 00:15:38;;;;;;;22.75;18.92;;;19.00;86.90;;;17.69;100.00;95887.22;5007260;28;20041;-66
2022/08/20 00:18:05;;;;;;;20.10;18.08;;;19.00;86.90;;;17.69;100.00;95889.06;5005585;28;20045;-66
2022/08/20 00:20:34;;;;;;;20.30;18.30;;;19.00;87.00;;;17.68;100.00;95880.28;5000882;28;20444;-66
2022/08/20 00:23:00;;;;;;;20.83;18.63;;;19.00;86.80;;;17.68;100.00;95880.28;4990926;28;20033;-65
2022/08/20 00:25:27;;;;;;;20.13;18.02;;;19.00;86.70;;;17.67;100.00;95881.34;5005446;28;20025;-66
2022/08/20 00:27:53;;;;;;;20.65;18.55;;;19.00;86.70;;;17.69;100.00;95883.75;5006843;28;20064;-66
2022/08/20 00:30:19;;;;;;;21.58;19.38;;;19.00;86.90;;;17.68;100.00;95882.94;5003016;28;20120;-65
2022/08/20 00:32:58;;;;;;;21.83;19.55;;;19.00;86.90;;;17.68;100.00;95888.28;5006122;28;20033;-65
2022/08/20 00:35:27;;;;;;;20.30;18.15;;;19.00;86.80;;;17.67;100.00;95881.34;5021543;28;20033;-66
2022/08/20 00:37:53;;;;;;;21.80;19.60;;;19.00;86.90;;;17.69;100.00;95879.25;4971973;28;20540;-66
2022/08/20 00:40:22;;;;;;;21.65;19.38;;;19.00;86.90;;;17.71;100.00;95884.31;5005563;28;20062;-65
2022/08/20 00:42:58;;;;;;;21.48;19.27;;;19.00;86.90;;;17.72;100.00;95894.72;4983706;28;20029;-66
2022/08/20 00:45:29;;;;;;;22.40;19.95;;;19.00;86.90;;;17.72;100.00;95888.59;4994138;28;20037;-65
2022/08/20 00:47:55;;;;;;;21.60;19.40;;;19.00;87.00;;;17.71;100.00;95885.13;5003000;28;20079;-65
2022/08/20 00:50:35;;;;;;;20.50;18.38;;;19.00;87.10;;;17.73;100.00;95885.69;5004443;28;20041;-66
2022/08/20 00:53:01;;;;;;;21.00;18.80;;;19.00;87.00;;;17.73;100.00;95883.03;4987073;28;20025;-66
2022/08/20 00:55:27;;;;;;;21.52;19.40;;;19.00;87.00;;;17.74;100.00;95889.97;5021021;28;20052;-66
2022/08/20 00:57:56;;;;;;;23.88;20.90;;;19.10;87.00;;;17.74;100.00;95895.28;5022953;28;20034;-66
2022/08/20 01:00:44;;;;;;;22.05;19.77;;;19.10;86.90;;;17.76;100.00;95895.06;4989874;28;20033;-67
2022/08/20 01:03:11;;;;;;;23.08;20.70;;;19.10;86.80;;;17.74;100.00;95892.63;5002969;28;20033;-65
2022/08/20 01:05:40;;;;;;;23.05;20.55;;;19.10;86.90;;;17.75;100.00;95902.22;5021916;28;20029;-66
2022/08/20 01:08:06;;;;;;;24.38;21.88;;;19.10;87.00;;;17.77;100.00;95901.19;4980695;28;20060;-66
2022/08/20 01:10:35;;;;;;;24.30;21.70;;;19.10;87.00;;;17.77;100.00;95901.19;5017255;28;20095;-66
2022/08/20 01:13:08;;;;;;;17.02;15.32;;;19.10;87.10;;;17.75;100.00;95894.25;5010282;28;20025;-66
2022/08/20 01:15:35;;;;;;;15.48;13.32;;;19.00;86.70;;;17.73;100.00;95887.56;5019163;28;20037;-66
2022/08/20 01:18:01;;;;;;;11.13;10.02;;;19.00;86.70;;;17.70;100.00;95896.00;4987158;28;20029;-66
2022/08/20 01:20:32;;;;;;;11.23;10.13;;;18.90;86.60;;;17.68;100.00;95893.59;5000990;28;20502;-65
2022/08/20 01:23:33;;;;;;;10.68;9.65;;;18.90;86.60;;;17.69;100.00;95895.19;4999521;28;20053;-66
2022/08/20 01:26:18;;;;;;;10.40;9.35;;;19.00;86.70;;;17.68;100.00;95893.59;5016639;28;20405;-65
2022/08/20 01:29:04;;;;;;;15.65;14.02;;;19.00;86.70;;;17.67;100.00;95891.13;5010322;28;20034;-65
2022/08/20 01:31:32;;;;;;;17.17;15.18;;;18.90;86.60;;;17.66;100.00;95895.66;5011319;28;20037;-66
2022/08/20 01:33:59;;;;;;;20.88;18.65;;;18.90;86.80;;;17.64;100.00;95897.72;5025461;28;20112;-66
2022/08/20 01:36:38;;;;;;;20.80;18.70;;;18.90;86.80;;;17.65;100.00;95907.34;5023777;28;20572;-65
2022/08/20 01:39:06;;;;;;;20.65;18.45;;;18.90;86.90;;;17.64;100.00;95892.41;5009098;28;20509;-65
2022/08/20 01:41:50;;;;;;;19.95;17.83;;;18.90;87.00;;;17.65;100.00;95899.34;5000580;28;20298;-66
2022/08/20 01:44:16;;;;;;;21.00;18.77;;;18.90;87.10;;;17.66;100.00;95894.84;5020853;28;20563;-65
2022/08/20 01:46:43;;;;;;;20.48;17.98;;;19.00;87.20;;;17.66;100.00;95890.34;4966927;28;20040;-65
2022/08/20 01:49:18;;;;;;;22.55;20.15;;;19.00;86.80;;;17.67;100.00;95885.81;4988883;28;20033;-66
2022/08/20 01:51:44;;;;;;;22.92;20.52;;;19.00;86.80;;;17.65;100.00;95888.72;4993558;28;20116;-65
2022/08/20 01:54:10;;;;;;;23.55;21.17;;;19.00;86.80;;;17.64;100.00;95884.41;4981239;28;20061;-65
2022/08/20 01:56:54;;;;;;;25.80;23.05;;;18.90;86.90;;;17.64;100.00;95891.59;4998904;28;20045;-65
2022/08/20 01:59:19;;;;;;;26.33;23.52;;;19.00;87.00;;;17.63;100.00;95900.63;5008742;28;20041;-65
2022/08/20 02:01:45;;;;;;;26.77;23.85;;;18.90;87.20;;;17.64;100.00;95903.03;5022330;28;20049;-66
2022/08/20 02:04:12;;;;;;;28.73;24.80;;;19.00;87.20;;;17.64;100.00;95902.22;5021303;28;20045;-66
2022/08/20 02:06:44;;;;;;;29.58;25.35;;;19.00;87.30;;;17.64;100.00;95908.34;5003983;28;20509;-65
2022/08/20 02:09:11;;;;;;;30.70;26.00;;;19.00;87.20;;;17.64;100.00;95903.03;5020356;28;20037;-65
2022/08/20 02:11:37;;;;;;;29.63;25.15;;;18.90;87.40;;;17.61;100.00;95900.84;5004882;28;20030;-65
2022/08/20 02:14:05;;;;;;;29.70;25.48;;;18.90;87.30;;;17.61;100.00;95902.72;5000935;28;20061;-65
2022/08/20 02:16:37;;;;;;;28.55;25.55;;;18.90;87.20;;;17.60;100.00;95895.78;4999867;28;20033;-66
2022/08/20 02:19:11;;;;;;;30.15;25.60;;;18.80;87.30;;;17.59;100.00;95905.59;4992512;28;20038;-66
2022/08/20 02:21:40;;;;;;;27.55;23.75;;;18.80;87.30;;;17.59;100.00;95908.25;5015391;28;20045;-65
2022/08/20 02:24:06;;;;;;;28.17;25.13;;;18.90;87.20;;;17.57;100.00;95897.06;4971101;28;20038;-66
2022/08/20 02:26:31;;;;;;;28.73;25.75;;;18.90;87.30;;;17.57;100.00;95907.69;5005690;28;20065;-65
2022/08/20 02:28:58;;;;;;;28.83;25.15;;;18.80;87.20;;;17.57;100.00;95907.69;5020379;28;20054;-66
2022/08/20 02:31:24;;;;;;;27.25;24.35;;;18.90;87.20;;;17.57;100.00;95901.56;5012191;28;20038;-65
2022/08/20 02:33:50;;;;;;;31.77;25.70;;;18.80;87.20;;;17.56;100.00;95906.09;5020139;28;20133;-65
2022/08/20 02:36:16;;;;;;;27.13;24.15;;;18.80;87.30;;;17.55;100.00;95901.81;5005301;28;20497;-66
2022/08/20 02:38:42;;;;;;;29.13;25.83;;;18.80;87.40;;;17.54;100.00;95910.84;5022046;28;20068;-66
2022/08/20 02:41:09;;;;;;;29.70;25.80;;;18.90;87.20;;;17.55;100.00;95911.66;5023919;28;20504;-65
2022/08/20 02:43:36;;;;;;;28.27;25.10;;;18.90;87.30;;;17.55;100.00;95909.78;5023622;28;20036;-66
2022/08/20 02:46:01;;;;;;;27.27;24.33;;;18.90;87.10;;;17.54;100.00;95918.81;5022048;28;20045;-65
2022/08/20 02:48:27;;;;;;;26.75;23.85;;;18.80;87.00;;;17.51;100.00;95908.66;5022017;28;20969;-66
2022/08/20 02:51:02;;;;;;;25.95;23.17;;;18.80;87.30;;;17.51;100.00;95911.31;5040700;28;20460;-66
2022/08/20 02:53:32;;;;;;;27.08;23.80;;;18.80;87.00;;;17.52;100.00;95914.78;4983953;28;20030;-66
2022/08/20 02:55:59;;;;;;;30.43;24.10;;;18.70;87.40;;;17.50;100.00;95912.38;5007419;28;20410;-66
2022/08/20 02:58:25;;;;;;;29.17;24.52;;;18.80;87.30;;;17.50;100.00;95908.91;5001652;28;20293;-65
2022/08/20 03:00:50;;;;;;;27.80;24.73;;;18.80;87.40;;;17.48;100.00;95909.13;5012917;28;20143;-65
2022/08/20 03:03:21;;;;;;;30.02;24.75;;;18.80;87.40;;;17.48;100.00;95897.69;5009176;28;20060;-65
2022/08/20 03:05:47;;;;;;;28.05;24.67;;;18.70;87.30;;;17.47;100.00;95896.06;5013456;28;20026;-65
2022/08/20 03:08:13;;;;;;;27.40;24.45;;;18.70;87.50;;;17.45;100.00;95898.97;4974493;28;20416;-65
2022/08/20 03:10:40;;;;;;;28.70;25.48;;;18.70;87.50;;;17.46;100.00;95905.91;5023225;28;20065;-66
2022/08/20 03:13:10;;;;;;;29.45;25.27;;;18.70;87.40;;;17.44;100.00;95897.34;4992711;28;20059;-65
2022/08/20 03:15:35;;;;;;;28.05;25.05;;;18.70;87.40;;;17.41;100.00;95903.94;4991156;28;20033;-65
2022/08/20 03:18:01;;;;;;;31.08;24.80;;;18.60;87.30;;;17.40;100.00;95898.84;5021274;28;20513;-66
2022/08/20 03:20:27;;;;;;;27.63;24.80;;;18.70;87.50;;;17.40;100.00;95906.81;5025140;28;20034;-65
2022/08/20 03:22:53;;;;;;;28.35;25.35;;;18.70;87.40;;;17.39;100.00;95910.53;5010015;28;20056;-65
2022/08/20 03:25:19;;;;;;;29.80;24.98;;;18.60;87.50;;;17.38;100.00;95903.59;5024733;28;20038;-65
2022/08/20 03:27:45;;;;;;;29.27;26.05;;;18.60;87.50;;;17.38;100.00;95911.56;5008691;28;20030;-66
2022/08/20 03:30:13;;;;;;;29.45;25.65;;;18.60;87.40;;;17.39;100.00;95915.84;5005514;28;20080;-66
2022/08/20 03:32:39;;;;;;;29.10;25.08;;;18.70;87.50;;;17.37;100.00;95918.75;5022479;28;20028;-66
2022/08/20 03:35:06;;;;;;;31.17;25.27;;;18.60;87.40;;;17.37;100.00;95917.94;5018502;28;20037;-67
2022/08/20 03:37:32;;;;;;;28.33;24.77;;;18.60;87.50;;;17.36;100.00;95919.78;5024961;28;20029;-65
2022/08/20 03:39:58;;;;;;;28.45;25.42;;;18.70;87.60;;;17.35;100.00;95914.72;5022682;28;20030;-66
2022/08/20 03:42:24;;;;;;;29.23;26.13;;;18.60;87.70;;;17.35;100.00;95917.38;5020856;28;20125;-68
2022/08/20 03:44:50;;;;;;;28.67;25.30;;;18.70;87.60;;;17.36;100.00;95918.97;4992708;28;20152;-68
2022/08/20 03:47:16;;;;;;;28.35;25.35;;;18.70;87.60;;;17.36;100.00;95921.66;5024243;28;20042;-68
2022/08/20 03:49:42;;;;;;;28.45;25.48;;;18.70;87.70;;;17.36;100.00;95921.66;5011549;28;20045;-70
2022/08/20 03:52:07;;;;;;;28.85;24.92;;;18.60;87.60;;;17.36;100.00;95921.66;5004818;28;20075;-66
2022/08/20 03:54:33;;;;;;;29.15;26.10;;;18.60;87.60;;;17.36;100.00;95933.09;5023819;28;20128;-66
2022/08/20 03:57:01;;;;;;;30.52;26.48;;;18.60;87.70;;;17.36;100.00;95932.28;5009587;28;20061;-66
2022/08/20 03:59:26;;;;;;;29.35;26.17;;;18.60;87.60;;;17.35;100.00;95930.66;4992409;28;20053;-66
2022/08/20 04:01:53;;;;;;;31.73;27.23;;;18.60;87.80;;;17.35;100.00;95935.97;5021555;28;20096;-66
2022/08/20 04:04:19;;;;;;;28.95;25.83;;;18.60;87.70;;;17.35;100.00;95935.97;5022583;28;20169;-66
2022/08/20 04:06:46;;;;;;;29.30;26.10;;;18.70;87.80;;;17.35;100.00;95938.63;5010385;28;20513;-66
2022/08/20 04:09:13;;;;;;;28.88;25.45;;;18.60;87.80;;;17.33;100.00;95936.22;5011356;28;20052;-66
2022/08/20 04:11:40;;;;;;;30.10;26.67;;;18.60;87.90;;;17.31;100.00;95937.50;5013385;28;20033;-67
2022/08/20 04:14:05;;;;;;;29.70;26.08;;;18.60;88.00;;;17.31;100.00;95942.81;5027431;28;20420;-66
2022/08/20 04:16:31;;;;;;;30.70;26.85;;;18.60;88.10;;;17.30;100.00;95939.34;4986472;28;20043;-66
2022/08/20 04:18:57;;;;;;;30.17;26.42;;;18.60;87.90;;;17.30;100.00;95938.53;5025866;28;20041;-66
2022/08/20 04:21:23;;;;;;;31.52;27.35;;;18.60;88.10;;;17.29;100.00;95947.56;5007221;28;20579;-66
2022/08/20 04:23:51;;;;;;;29.65;26.48;;;18.60;88.20;;;17.28;100.00;95943.28;5022773;28;20029;-65
2022/08/20 04:26:16;;;;;;;31.00;26.30;;;18.60;88.20;;;17.26;100.00;95938.22;5005806;28;20066;-66
2022/08/20 04:28:42;;;;;;;29.88;26.05;;;18.50;88.20;;;17.26;100.00;95942.72;5007154;28;20052;-66
2022/08/20 04:31:08;;;;;;;30.33;25.75;;;18.50;88.00;;;17.23;100.00;95935.22;5027045;28;20389;-66
2022/08/20 04:33:33;;;;;;;30.08;26.10;;;18.50;88.50;;;17.20;100.00;95930.34;5024449;28;20535;-66
2022/08/20 04:36:01;;;;;;;30.25;26.75;;;18.40;88.30;;;17.19;100.00;95942.03;5022976;28;20528;-67
2022/08/20 04:38:27;;;;;;;30.17;26.88;;;18.40;88.50;;;17.17;100.00;95958.19;5005233;28;20096;-66
2022/08/20 04:40:53;;;;;;;30.92;26.42;;;18.40;88.50;;;17.15;100.00;95958.44;5015852;28;20053;-66
2022/08/20 04:43:33;;;;;;;33.38;27.02;;;18.40;88.60;;;17.16;100.00;95964.56;5018395;28;20037;-68
2022/08/20 04:46:05;;;;;;;;;;;18.40;88.60;;;17.13;100.00;95965.84;5036299;28;20454;-69
2022/08/20 04:48:31;;;;;;;30.38;26.05;;;18.40;88.60;;;17.11;100.00;95967.13;5008433;28;19925;-69
2022/08/20 04:50:58;;;;;;;31.33;26.15;;;18.30;88.50;;;17.10;100.00;95968.16;5026413;28;20440;-69
2022/08/20 04:53:25;;;;;;;29.40;25.45;;;18.40;88.70;;;17.11;100.00;95962.59;5027608;28;20026;-68
2022/08/20 04:55:51;;;;;;;29.58;26.20;;;18.40;88.70;;;17.11;100.00;95967.13;5009472;28;20109;-67
2022/08/20 04:58:26;;;;;;;28.95;25.75;;;18.40;88.80;;;17.12;100.00;95964.22;5016400;28;20137;-68
2022/08/20 05:00:54;;;;;;;30.67;26.25;;;18.40;88.60;;;17.12;100.00;95966.06;4993735;28;20378;-68
2022/08/20 05:03:21;;;;;;;30.73;25.50;;;18.40;88.70;;;17.14;100.00;95967.44;5010367;28;20060;-69
2022/08/20 05:05:46;;;;;;;28.92;24.52;;;18.50;88.60;;;17.17;100.00;95968.03;5011528;28;20092;-70
2022/08/20 05:08:13;;;;;;;27.38;24.35;;;18.50;88.50;;;17.17;100.00;95974.16;5028124;28;20113;-68
2022/08/20 05:10:39;;;;;;;27.92;24.85;;;18.60;88.50;;;17.19;100.00;95974.72;5011847;28;20026;-67
2022/08/20 05:13:06;;;;;;;29.75;25.42;;;18.50;88.30;;;17.20;100.00;95975.53;5027512;28;20132;-69
2022/08/20 05:15:32;;;;;;;26.98;23.52;;;18.60;88.30;;;17.24;100.00;95982.03;5028460;28;20036;-68
2022/08/20 05:18:01;;;;;;;29.13;24.00;;;18.60;88.10;;;17.23;100.00;95986.53;5011479;28;20434;-68
2022/08/20 05:20:30;;;;;;;29.77;23.13;;;18.60;88.20;;;17.25;100.00;95988.94;5028310;28;20053;-69
2022/08/20 05:22:58;;;;;;;31.30;24.65;;;18.60;88.20;;;17.27;100.00;95986.88;5021253;28;20517;-68
2022/08/20 05:25:23;;;;;;;28.02;23.65;;;18.60;88.10;;;17.28;100.00;95991.13;5008556;28;20122;-68
2022/08/20 05:27:54;;;;;;;25.77;21.30;;;18.60;88.00;;;17.29;100.00;95990.09;5020118;28;20095;-70
2022/08/20 05:30:19;;;;;;;24.95;22.08;;;18.60;88.00;;;17.31;100.00;95993.31;5028717;28;20501;-68
2022/08/20 05:32:46;;;;;;;25.15;22.40;;;18.70;87.80;;;17.34;100.00;95992.84;5022244;28;20108;-69
2022/08/20 05:35:11;;;;;;;24.50;21.52;;;18.70;87.80;;;17.35;100.00;96000.59;5008434;28;20383;-70
2022/08/20 05:37:39;;;;;;;23.58;20.92;;;18.70;87.60;;;17.36;100.00;95998.75;5008346;28;20030;-69
2022/08/20 05:40:11;;;;;;;22.65;20.30;;;18.70;87.50;;;17.38;100.00;96001.97;4988408;28;20038;-68
2022/08/20 05:42:37;;;;;;;24.42;21.33;;;18.80;87.40;;;17.39;100.00;96006.25;5009920;28;20029;-69
2022/08/20 05:45:04;;;;;;;24.58;20.95;;;18.70;87.60;;;17.39;100.00;95998.28;5008290;28;20456;-69
2022/08/20 05:47:30;;;;;;;24.50;21.00;;;18.70;87.50;;;17.41;100.00;95996.19;5008414;28;20044;-69
2022/08/20 05:49:56;;;;;;;24.33;21.02;;;18.80;87.50;;;17.43;100.00;96002.09;5008263;28;20076;-68
2022/08/20 05:52:22;;;;;;;22.77;20.27;;;18.80;87.20;;;17.44;100.00;96003.72;5003987;28;20099;-68
2022/08/20 05:54:48;;;;;;;22.40;19.73;;;18.80;87.30;;;17.46;100.00;96006.97;5007063;28;20114;-69
2022/08/20 05:57:18;;;;;;;23.52;20.40;;;18.80;87.40;;;17.48;100.00;95999.56;5012932;28;20034;-69
2022/08/20 05:59:43;;;;;;;24.30;20.08;;;18.80;87.30;;;17.49;100.00;96001.16;4996031;28;20050;-68
2022/08/20 06:04:23;;;;;;;24.13;20.17;;;18.80;87.30;;;17.51;100.00;96003.59;4995150;28;20067;-69
2022/08/20 06:04:55;;;;;;;22.13;19.83;;;18.90;87.20;;;17.50;100.00;96013.41;5031368;28;20033;-69
2022/08/20 06:07:21;;;;;;;20.92;18.23;;;18.80;87.10;;;17.51;100.00;96009.72;5031905;28;20030;-69
2022/08/20 06:09:47;;;;;;;24.30;19.52;;;18.90;86.90;;;17.56;100.00;96011.66;5031662;28;20034;-69
2022/08/20 06:12:13;;;;;;;23.60;20.08;;;19.00;87.00;;;17.57;100.00;96014.09;5022591;28;20042;-69
2022/08/20 06:14:39;;;;;;;21.33;19.13;;;19.00;87.00;;;17.61;100.00;96014.41;5027957;28;20034;-68
2022/08/20 06:17:11;;;;;;;20.95;18.83;;;19.00;86.90;;;17.64;100.00;96020.06;4995388;28;20109;-70
2022/08/20 06:19:37;;;;;;;21.88;18.90;;;19.10;86.80;;;17.68;100.00;96015.97;5011732;28;20038;-69
2022/08/20 06:22:03;;;;;;;22.60;18.77;;;19.10;86.70;;;17.71;100.00;96014.69;5006536;28;20044;-69
2022/08/20 06:24:29;;;;;;;20.08;17.98;;;19.10;86.40;;;17.75;100.00;96018.47;5009100;28;20042;-69
2022/08/20 06:26:57;;;;;;;20.73;18.63;;;19.20;86.40;;;17.79;100.00;96021.47;5013151;28;20128;-68
2022/08/20 06:29:23;;;;;;;21.13;18.55;;;19.30;86.50;;;17.82;100.00;96028.97;4997605;28;20041;-69
2022/08/20 06:31:49;;;;;;;20.40;18.30;;;19.20;86.30;;;17.84;100.00;96034.88;4980380;28;20080;-69
2022/08/20 06:34:15;;;;;;;21.45;18.42;;;19.20;86.30;;;17.85;100.00;96037.28;5018903;28;20551;-68
2022/08/20 06:36:40;;;;;;;20.83;17.88;;;19.20;86.20;;;17.86;100.00;96030.13;5016667;28;20036;-68
2022/08/20 06:39:07;;;;;;;19.73;17.73;;;19.30;86.20;;;17.88;100.00;96036.00;5006609;28;20046;-69
2022/08/20 06:41:34;;;;;;;20.23;18.17;;;19.20;86.30;;;17.86;100.00;96035.44;5027876;28;20509;-68
2022/08/20 06:44:00;;;;;;;21.27;17.75;;;19.20;86.30;;;17.86;100.00;96046.06;5012069;28;20041;-69
2022/08/20 06:46:26;;;;;;;19.48;17.38;;;19.10;86.40;;;17.83;100.00;96051.88;4989299;28;20083;-67
2022/08/20 06:48:51;;;;;;;22.15;17.38;;;19.10;86.60;;;17.82;100.00;96053.72;5012581;28;20037;-66
2022/08/20 06:51:17;;;;;;;19.35;17.08;;;19.10;86.50;;;17.81;100.00;96051.31;5028433;28;20103;-65
2022/08/20 06:53:43;;;;;;;18.48;16.52;;;19.10;86.60;;;17.79;100.00;96051.53;5007875;28;20567;-69
2022/08/20 06:56:09;;;;;;;18.60;16.40;;;19.20;86.50;;;17.81;100.00;96051.31;5010556;28;20041;-65
2022/08/20 06:58:35;;;;;;;18.20;16.40;;;19.10;86.40;;;17.81;100.00;96059.28;5029676;28;20080;-71
2022/08/20 07:01:01;;;;;;;19.30;17.05;;;19.20;86.60;;;17.80;100.00;96060.34;5024830;28;20037;-66
2022/08/20 07:03:27;;;;;;;20.50;17.05;;;19.20;86.60;;;17.82;100.00;96063.56;5022635;28;20029;-65
2022/08/20 07:05:53;;;;;;;20.27;16.80;;;19.20;86.70;;;17.81;100.00;96056.63;5002143;28;20040;-64
2022/08/20 07:08:21;;;;;;;17.88;15.85;;;19.20;86.50;;;17.82;100.00;96063.56;5020891;28;20109;-65
2022/08/20 07:10:47;;;;;;;19.48;17.30;;;19.10;86.60;;;17.80;100.00;96061.13;5024065;28;20498;-65
2022/08/20 07:13:15;;;;;;;19.83;16.45;;;19.10;86.60;;;17.77;100.00;96060.81;5023623;28;20497;-64
2022/08/20 07:15:41;;;;;;;19.70;16.33;;;19.10;86.90;;;17.75;100.00;96059.19;5028155;28;20505;-69
2022/08/20 07:18:07;;;;;;;19.23;16.60;;;19.10;86.90;;;17.75;100.00;96056.53;5028869;28;20056;-66
2022/08/20 07:20:35;;;;;;;19.77;16.88;;;19.20;86.90;;;17.74;100.00;96054.91;4984462;28;20482;-65
2022/08/20 07:23:01;;;;;;;19.10;17.02;;;19.10;87.10;;;17.75;100.00;96053.88;5011516;28;20030;-66
2022/08/20 07:25:27;;;;;;;20.65;16.90;;;19.10;87.00;;;17.78;100.00;96049.94;4994228;28;20034;-64
2022/08/20 07:28:00;;;;;;;18.92;16.65;;;19.20;87.00;;;17.81;100.00;96053.97;5006276;28;20064;-68
2022/08/20 07:33:13;;;;;;;17.70;15.00;;;19.30;86.40;;;17.81;100.00;96056.63;5013442;28;20060;-65
2022/08/20 07:35:39;;;;;;;17.40;14.63;;;19.10;86.30;;;17.82;100.00;96050.25;5027084;28;20033;-67
2022/08/20 07:38:06;;;;;;;17.15;15.40;;;19.20;86.70;;;17.84;100.00;96061.47;5008308;28;20449;-72
2022/08/20 07:40:33;;;;;;;16.52;13.88;;;19.30;86.60;;;17.85;100.00;96063.09;5022057;28;20041;-70
2022/08/20 07:43:01;;;;;;;15.48;13.88;;;19.30;86.30;;;17.86;100.00;96064.69;5029084;28;20026;-66
2022/08/20 07:45:27;;;;;;;16.55;14.85;;;19.30;85.80;;;17.86;100.00;96068.19;5027241;28;20056;-66
2022/08/20 07:47:54;;;;;;;15.45;13.75;;;19.30;86.00;;;17.87;100.00;96066.31;5011557;28;20068;-66
2022/08/20 07:50:22;;;;;;;14.07;12.48;;;19.30;85.60;;;17.91;100.00;96072.81;5010476;28;20038;-67
2022/08/20 07:52:51;;;;;;;15.40;13.80;;;19.30;85.00;;;17.91;100.00;96078.13;5007606;28;20060;-66
2022/08/20 07:55:17;;;;;;;17.45;13.32;;;19.40;85.40;;;17.92;100.00;96079.75;5011611;28;20464;-65
2022/08/20 07:57:45;;;;;;;15.15;13.65;;;19.40;85.20;;;17.93;100.00;96078.72;4984550;28;20034;-66
2022/08/20 08:00:12;;;;;;;15.75;13.90;;;19.40;85.10;;;17.95;100.00;96077.44;5025920;28;20283;-67
2022/08/20 08:02:38;;;;;;;15.18;12.93;;;19.50;85.30;;;17.99;100.00;96080.41;5026158;28;20085;-69
2022/08/20 08:05:04;;;;;;;16.17;13.13;;;19.50;85.10;;;18.02;100.00;96093.25;5027309;28;20030;-67
2022/08/20 08:07:31;;;;;;;14.77;13.23;;;19.60;85.00;;;18.04;100.00;96083.19;5015409;28;20045;-66
2022/08/20 08:09:57;;;;;;;14.80;13.30;;;19.60;85.00;;;18.06;100.00;96086.41;4999937;28;20100;-67
2022/08/20 08:12:23;;;;;;;15.25;13.70;;;19.50;85.50;;;18.07;100.00;96093.34;4985193;28;21946;-68
2022/08/20 08:14:49;;;;;;;14.73;13.18;;;19.60;85.70;;;18.10;100.00;96087.53;5021622;28;20446;-67
2022/08/20 08:17:15;;;;;;;15.00;13.18;;;19.60;85.40;;;18.09;100.00;96085.94;5025727;28;20038;-66
2022/08/20 08:19:45;;;;;;;15.48;13.63;;;19.60;85.80;;;18.12;100.00;96092.66;4991050;28;20046;-66
2022/08/20 08:22:12;;;;;;;15.60;13.95;;;19.50;85.70;;;18.11;100.00;96094.53;5026067;28;20116;-66
2022/08/20 08:24:39;;;;;;;16.35;13.63;;;19.60;85.90;;;18.11;100.00;96099.03;5008175;28;20034;-66
2022/08/20 08:27:06;;;;;;;15.48;13.80;;;19.60;85.90;;;18.12;100.00;96098.78;4993800;28;20033;-66
2022/08/20 08:29:34;;;;;;;17.13;13.60;;;19.60;85.90;;;18.11;100.00;96094.53;5025316;28;20065;-65
2022/08/20 08:32:01;;;;;;;14.88;13.23;;;19.50;85.80;;;18.12;100.00;96101.47;5010486;28;20030;-65
2022/08/20 08:34:26;;;;;;;14.98;13.48;;;19.50;86.00;;;18.12;100.00;96104.13;5009100;28;20041;-66
2022/08/20 08:36:52;;;;;;;14.88;13.25;;;19.60;86.10;;;18.13;100.00;96102.25;5025307;28;20057;-66
2022/08/20 08:39:18;;;;;;;14.90;13.27;;;19.50;86.00;;;18.12;100.00;96098.78;5022136;28;20132;-68
2022/08/20 08:41:48;;;;;;;15.43;13.93;;;19.60;86.20;;;18.13;100.00;96103.06;5010491;28;20033;-66
2022/08/20 08:44:22;;;;;;;17.63;13.53;;;19.60;86.10;;;18.17;100.00;96111.41;5009562;28;20049;-67
2022/08/20 08:46:55;;;;;;;14.32;12.68;;;19.70;86.10;;;18.18;100.00;96110.34;5005498;28;20033;-67
2022/08/20 08:49:25;;;;;;;14.60;12.82;;;19.60;85.90;;;18.18;100.00;96113.00;4993871;28;20036;-67
2022/08/20 08:52:07;;;;;;;15.63;12.13;;;19.60;85.60;;;18.18;100.00;96119.16;5019552;28;20114;-66
2022/08/20 08:54:33;;;;;;;13.88;12.15;;;19.60;85.70;;;18.19;100.00;96114.63;5027715;28;20120;-67
2022/08/20 08:56:59;;;;;;;13.23;11.93;;;19.60;85.30;;;18.18;100.00;96116.47;5022074;28;20033;-66
2022/08/20 08:59:29;;;;;;;13.00;11.57;;;19.60;85.40;;;18.19;100.00;96120.75;5012966;28;20120;-66
2022/08/20 09:01:57;;;;;;;13.03;11.43;;;19.60;85.40;;;18.21;100.00;96116.00;5014157;28;20033;-67
2022/08/20 09:04:30;;;;;;;16.50;12.13;;;19.70;85.30;;;18.21;100.00;96118.66;5008275;28;20040;-65
2022/08/20 09:06:56;;;;;;;13.35;10.98;;;19.60;85.20;;;18.21;100.00;96116.00;5004327;28;20036;-67
2022/08/20 09:09:25;;;;;;;14.18;12.00;;;19.60;85.30;;;18.20;100.00;96118.91;5013459;28;20049;-65
2022/08/20 09:11:54;;;;;;;12.90;11.50;;;19.60;84.90;;;18.16;100.00;96113.25;5011922;28;20030;-65
2022/08/20 09:14:21;;;;;;;12.77;11.48;;;19.60;85.40;;;18.17;100.00;96114.06;5022281;28;20068;-65
2022/08/20 09:16:47;;;;;;;15.40;11.52;;;19.60;85.40;;;18.19;100.00;96112.78;5003390;28;20037;-65
2022/08/20 09:19:13;;;;;;;12.82;11.52;;;19.60;85.40;;;18.20;100.00;96114.38;5002093;28;20084;-65
2022/08/20 09:21:38;;;;;;;13.07;11.77;;;19.60;85.40;;;18.19;100.00;96109.31;4992062;28;20034;-65
2022/08/20 09:24:04;;;;;;;13.15;11.60;;;19.60;85.30;;;18.18;100.00;96107.69;5014445;28;20053;-65
2022/08/20 09:26:30;;;;;;;11.68;10.55;;;19.50;85.30;;;18.18;100.00;96116.47;4980449;28;20038;-65
2022/08/20 09:28:56;;;;;;;13.10;11.77;;;19.60;85.30;;;18.20;100.00;96118.91;5029325;28;20072;-65
2022/08/20 09:31:23;;;;;;;12.77;11.50;;;19.60;85.20;;;18.19;100.00;96123.41;5042935;28;20512;-65
2022/08/20 09:33:52;;;;;;;13.65;11.90;;;19.60;85.10;;;18.19;100.00;96115.44;5050094;28;20053;-65
2022/08/20 09:36:18;;;;;;;13.02;11.73;;;19.60;85.30;;;18.22;100.00;96122.94;4995867;28;20053;-65
2022/08/20 09:38:43;;;;;;;13.15;11.57;;;19.70;85.40;;;18.23;100.00;96119.22;5011526;28;20034;-65
2022/08/20 09:41:09;;;;;;;13.38;11.98;;;19.70;85.40;;;18.24;100.00;96120.84;5012213;28;20030;-64
2022/08/20 09:43:35;;;;;;;13.93;12.43;;;19.80;85.20;;;18.27;100.00;96122.22;5012221;28;20034;-65
2022/08/20 09:46:00;;;;;;;13.10;11.70;;;19.80;85.00;;;18.30;100.00;96121.75;5008730;28;20045;-65
2022/08/20 09:48:26;;;;;;;16.17;11.60;;;19.80;84.90;;;18.33;100.00;96115.94;5025183;28;20045;-65
2022/08/20 09:50:52;;;;;;;13.32;11.98;;;19.90;85.10;;;18.38;100.00;96115.25;5025288;28;20034;-66
2022/08/20 09:53:18;;;;;;;14.82;12.90;;;19.90;84.90;;;18.40;100.00;96118.50;5027892;28;20038;-65
2022/08/20 09:55:47;;;;;;;13.80;11.95;;;19.90;84.80;;;18.39;100.00;96111.56;5003575;28;20033;-65
2022/08/20 09:58:37;;;;;;;13.45;12.13;;;19.80;84.50;;;18.40;100.00;96121.97;5026946;28;20176;-65
2022/08/20 10:01:13;;;;;;;13.63;12.20;;;19.80;84.80;;;18.41;100.00;96107.59;5011548;28;20088;-65
2022/08/20 10:03:43;;;;;;;13.93;12.43;;;20.00;85.00;;;18.43;100.00;96113.50;4980505;28;20022;-66
2022/08/20 10:06:10;;;;;;;14.25;12.85;;;20.00;84.50;;;18.45;100.00;96113.25;5001712;28;20062;-65